Time;durP1;ratioP1;P1;durP2;ratioP2;P2;SDS_P1;SDS_P2;PMS_P1;PMS_P2;Temp;Humidity;BMP_temperature;BMP_pressure;BME280_temperature;BME280_humidity;BME280_pressure;Samples;Min_cycle;Max_cycle;Signal;HPM_P1;HPM_P2
2023/05/05 00:00:53;;;;;;;9.35;5.10;;;;;;;;;;5081895;28;20272;-68
2023/05/05 00:03:22;;;;;;;8.30;5.78;;;;;;;;;;5084774;28;20032;-69
2023/05/05 00:05:49;;;;;;;9.68;5.82;;;;;;;;;;5087730;28;20040;-68
2023/05/05 00:08:15;;;;;;;8.05;5.47;;;;;;;;;;5083646;28;20403;-69
2023/05/05 00:10:44;;;;;;;9.43;5.88;;;;;;;;;;5082857;28;20113;-69
2023/05/05 00:13:10;;;;;;;9.63;5.53;;;;;;;;;;5079508;28;20057;-69
2023/05/05 00:15:37;;;;;;;9.00;5.80;;;;;;;;;;5081914;28;20048;-69
2023/05/05 00:18:03;;;;;;;8.07;5.97;;;;;;;;;;5081206;28;20090;-69
2023/05/05 00:20:30;;;;;;;7.53;6.15;;;;;;;;;;5079098;28;20063;-69
2023/05/05 00:22:56;;;;;;;8.10;6.00;;;;;;;;;;5083320;28;20037;-69
2023/05/05 00:25:22;;;;;;;7.60;5.68;;;;;;;;;;5083726;28;20089;-69
2023/05/05 00:27:48;;;;;;;6.90;5.97;;;;;;;;;;5078659;28;20040;-69
2023/05/05 00:30:14;;;;;;;10.88;6.00;;;;;;;;;;5081466;28;20071;-69
2023/05/05 00:32:40;;;;;;;8.57;6.10;;;;;;;;;;5082550;28;20059;-70
2023/05/05 00:35:07;;;;;;;7.75;5.95;;;;;;;;;;5080913;28;20072;-69
2023/05/05 00:37:33;;;;;;;7.60;5.65;;;;;;;;;;5084216;28;20056;-69
2023/05/05 00:39:59;;;;;;;8.90;5.65;;;;;;;;;;5086705;28;20097;-69
2023/05/05 00:42:25;;;;;;;8.95;6.00;;;;;;;;;;5090826;28;20044;-70
2023/05/05 00:44:52;;;;;;;8.93;6.00;;;;;;;;;;5086190;28;20035;-69
2023/05/05 00:47:18;;;;;;;10.30;6.25;;;;;;;;;;5085568;28;20514;-70
2023/05/05 00:49:45;;;;;;;7.95;6.00;;;;;;;;;;5084458;28;20048;-69
2023/05/05 00:52:11;;;;;;;9.25;6.20;;;;;;;;;;5087922;28;20052;-69
2023/05/05 00:54:37;;;;;;;9.80;6.15;;;;;;;;;;5089474;28;20047;-69
2023/05/05 00:57:03;;;;;;;9.95;6.28;;;;;;;;;;5086942;28;20052;-69
2023/05/05 00:59:30;;;;;;;8.73;6.22;;;;;;;;;;5088653;28;20050;-69
2023/05/05 01:01:56;;;;;;;10.35;6.47;;;;;;;;;;5084102;28;20044;-69
2023/05/05 01:04:22;;;;;;;10.75;6.38;;;;;;;;;;5086860;28;20043;-69
2023/05/05 01:06:53;;;;;;;10.00;6.28;;;;;;;;;;5085973;28;20055;-69
2023/05/05 01:09:24;;;;;;;9.43;6.75;;;;;;;;;;5084858;28;20036;-69
2023/05/05 01:11:56;;;;;;;7.90;6.15;;;;;;;;;;5080461;28;20117;-70
2023/05/05 01:14:26;;;;;;;9.15;6.68;;;;;;;;;;5082026;28;20063;-70
2023/05/05 01:16:56;;;;;;;10.65;6.70;;;;;;;;;;5081898;28;20047;-69
2023/05/05 01:19:28;;;;;;;8.27;6.07;;;;;;;;;;5080833;28;20064;-69
2023/05/05 01:21:56;;;;;;;14.18;7.18;;;;;;;;;;5081018;28;20491;-69
2023/05/05 01:24:22;;;;;;;11.75;6.72;;;;;;;;;;5077369;28;20048;-69
2023/05/05 01:26:58;;;;;;;7.97;6.63;;;;;;;;;;5082982;28;20071;-69
2023/05/05 01:29:34;;;;;;;14.00;6.72;;;;;;;;;;5081973;28;20141;-69
2023/05/05 01:32:11;;;;;;;9.50;6.97;;;;;;;;;;5081211;28;20048;-69
2023/05/05 01:34:41;;;;;;;9.57;6.10;;;;;;;;;;5078595;28;20044;-69
2023/05/05 01:37:18;;;;;;;9.75;6.53;;;;;;;;;;5085492;28;20445;-69
2023/05/05 01:39:46;;;;;;;8.68;6.82;;;;;;;;;;5080949;28;20055;-69
2023/05/05 01:42:13;;;;;;;10.80;6.68;;;;;;;;;;5079803;28;20569;-69
2023/05/05 01:44:41;;;;;;;10.27;6.68;;;;;;;;;;5082014;28;20130;-69
2023/05/05 01:47:08;;;;;;;8.95;5.93;;;;;;;;;;5077699;28;20402;-69
2023/05/05 01:49:35;;;;;;;7.95;6.80;;;;;;;;;;5080161;28;20040;-69
2023/05/05 01:52:02;;;;;;;8.77;6.40;;;;;;;;;;5076877;28;20153;-69
2023/05/05 01:54:29;;;;;;;8.80;6.93;;;;;;;;;;5081031;28;20109;-68
2023/05/05 01:56:56;;;;;;;10.55;7.07;;;;;;;;;;5081503;28;20079;-68
2023/05/05 01:59:25;;;;;;;8.77;7.10;;;;;;;;;;5078773;28;20036;-69
2023/05/05 02:01:51;;;;;;;15.82;7.25;;;;;;;;;;5061731;28;20552;-68
2023/05/05 02:04:21;;;;;;;9.25;6.63;;;;;;;;;;5078475;28;21571;-69
2023/05/05 02:06:50;;;;;;;9.40;6.78;;;;;;;;;;5080540;28;21066;-68
2023/05/05 02:09:16;;;;;;;10.40;7.13;;;;;;;;;;5080052;28;20388;-69
2023/05/05 02:11:42;;;;;;;11.07;6.70;;;;;;;;;;5085370;28;20048;-69
2023/05/05 02:14:09;;;;;;;10.13;6.72;;;;;;;;;;5076941;28;20520;-69
2023/05/05 02:16:39;;;;;;;10.20;6.68;;;;;;;;;;5075012;28;20119;-68
2023/05/05 02:19:05;;;;;;;8.02;6.40;;;;;;;;;;5083469;28;20052;-69
2023/05/05 02:21:32;;;;;;;11.20;6.82;;;;;;;;;;5083577;28;20394;-68
2023/05/05 02:23:58;;;;;;;9.68;6.90;;;;;;;;;;5085043;28;20127;-69
2023/05/05 02:26:28;;;;;;;9.88;7.10;;;;;;;;;;5079123;28;20044;-69
2023/05/05 02:29:12;;;;;;;10.05;6.88;;;;;;;;;;5082651;28;20051;-69
2023/05/05 02:31:41;;;;;;;10.70;7.07;;;;;;;;;;5082598;28;20044;-69
2023/05/05 02:34:08;;;;;;;8.77;7.07;;;;;;;;;;5080114;28;20043;-69
2023/05/05 02:36:37;;;;;;;10.20;6.88;;;;;;;;;;5084718;28;20044;-69
2023/05/05 02:39:10;;;;;;;10.15;7.20;;;;;;;;;;5080442;28;20540;-69
2023/05/05 02:41:38;;;;;;;11.25;7.28;;;;;;;;;;5084675;28;20088;-69
2023/05/05 02:44:04;;;;;;;10.80;7.50;;;;;;;;;;5085192;28;20051;-69
2023/05/05 02:46:30;;;;;;;9.80;7.10;;;;;;;;;;5086348;28;20044;-69
2023/05/05 02:48:58;;;;;;;8.90;7.15;;;;;;;;;;5079491;28;20044;-69
2023/05/05 02:51:24;;;;;;;9.25;7.50;;;;;;;;;;5080679;28;20041;-69
2023/05/05 02:53:51;;;;;;;8.98;7.47;;;;;;;;;;5073901;28;20049;-68
2023/05/05 02:56:32;;;;;;;10.43;7.70;;;;;;;;;;5085011;28;20052;-69
2023/05/05 02:59:08;;;;;;;11.65;8.27;;;;;;;;;;5084513;28;20130;-68
2023/05/05 03:01:53;;;;;;;11.85;8.20;;;;;;;;;;5075069;28;20048;-69
2023/05/05 03:04:26;;;;;;;8.40;7.28;;;;;;;;;;5089049;28;20395;-68
2023/05/05 03:06:55;;;;;;;9.27;7.47;;;;;;;;;;5084713;28;20671;-68
2023/05/05 03:09:27;;;;;;;9.00;7.95;;;;;;;;;;5087183;28;20040;-68
2023/05/05 03:12:00;;;;;;;9.77;7.88;;;;;;;;;;5083380;28;20118;-68
2023/05/05 03:14:28;;;;;;;9.18;7.72;;;;;;;;;;5085082;28;20051;-69
2023/05/05 03:16:55;;;;;;;9.77;7.88;;;;;;;;;;5083455;28;20036;-68
2023/05/05 03:19:22;;;;;;;10.23;7.90;;;;;;;;;;5084552;28;20121;-69
2023/05/05 03:21:48;;;;;;;10.10;8.18;;;;;;;;;;5085140;28;20557;-68
2023/05/05 03:24:18;;;;;;;12.70;7.97;;;;;;;;;;5082403;28;20051;-68
2023/05/05 03:26:45;;;;;;;10.98;8.82;;;;;;;;;;5084226;28;20040;-69
2023/05/05 03:29:15;;;;;;;12.63;9.10;;;;;;;;;;5083622;28;20052;-69
2023/05/05 03:31:44;;;;;;;11.13;8.90;;;;;;;;;;5082569;28;20093;-69
2023/05/05 03:34:10;;;;;;;12.73;9.13;;;;;;;;;;5084233;28;20044;-69
2023/05/05 03:36:36;;;;;;;10.48;8.82;;;;;;;;;;5084271;28;20047;-69
2023/05/05 03:39:02;;;;;;;12.93;9.70;;;;;;;;;;5082853;28;20040;-69
2023/05/05 03:41:28;;;;;;;11.98;9.32;;;;;;;;;;5091112;28;20043;-68
2023/05/05 03:43:54;;;;;;;10.68;9.60;;;;;;;;;;5100387;28;20044;-69
2023/05/05 03:46:20;;;;;;;12.32;9.48;;;;;;;;;;5089523;28;20412;-69
2023/05/05 03:48:47;;;;;;;13.73;9.52;;;;;;;;;;5091476;28;20036;-68
2023/05/05 03:51:13;;;;;;;11.68;10.10;;;;;;;;;;5088532;28;20040;-69
2023/05/05 03:53:39;;;;;;;13.82;9.80;;;;;;;;;;5087580;28;20517;-69
2023/05/05 03:56:05;;;;;;;12.23;9.90;;;;;;;;;;5091274;28;20109;-68
2023/05/05 03:58:31;;;;;;;11.98;10.25;;;;;;;;;;5092004;28;20459;-68
2023/05/05 04:00:57;;;;;;;10.98;9.43;;;;;;;;;;5095351;28;20123;-68
2023/05/05 04:03:23;;;;;;;13.02;9.40;;;;;;;;;;5092442;28;20170;-68
2023/05/05 04:05:49;;;;;;;10.68;8.85;;;;;;;;;;5082902;28;20048;-67
2023/05/05 04:08:15;;;;;;;13.68;9.55;;;;;;;;;;5083460;28;20055;-68
2023/05/05 04:10:41;;;;;;;11.50;10.05;;;;;;;;;;5084920;28;20118;-69
2023/05/05 04:13:07;;;;;;;12.05;10.40;;;;;;;;;;5084929;28;20123;-69
2023/05/05 04:15:33;;;;;;;11.43;9.45;;;;;;;;;;5081167;28;20190;-69
2023/05/05 04:18:00;;;;;;;11.50;9.55;;;;;;;;;;5092915;28;20047;-68
2023/05/05 04:20:25;;;;;;;10.48;9.38;;;;;;;;;;5083245;28;20044;-69
2023/05/05 04:22:52;;;;;;;10.65;9.10;;;;;;;;;;5084720;28;20103;-68
2023/05/05 04:25:18;;;;;;;11.25;9.25;;;;;;;;;;5065215;28;20068;-69
2023/05/05 04:27:44;;;;;;;10.02;8.98;;;;;;;;;;5085553;28;20098;-69
2023/05/05 04:30:11;;;;;;;11.60;10.13;;;;;;;;;;5084004;28;20040;-69
2023/05/05 04:32:37;;;;;;;14.30;10.40;;;;;;;;;;5088093;28;20087;-69
2023/05/05 04:35:03;;;;;;;10.93;9.77;;;;;;;;;;5094712;28;20075;-68
2023/05/05 04:37:29;;;;;;;14.00;10.27;;;;;;;;;;5081057;28;20044;-69
2023/05/05 04:39:55;;;;;;;13.50;10.50;;;;;;;;;;5077928;28;20044;-68
2023/05/05 04:42:21;;;;;;;14.35;11.20;;;;;;;;;;5078582;28;20072;-68
2023/05/05 04:44:47;;;;;;;14.27;10.25;;;;;;;;;;5083350;28;20482;-69
2023/05/05 04:47:13;;;;;;;11.27;10.07;;;;;;;;;;5081731;28;20048;-69
2023/05/05 04:49:39;;;;;;;13.05;10.25;;;;;;;;;;5080302;28;20070;-69
2023/05/05 04:52:06;;;;;;;11.40;9.82;;;;;;;;;;5079599;28;20063;-68
2023/05/05 04:54:35;;;;;;;11.98;10.38;;;;;;;;;;5083337;28;20428;-68
2023/05/05 04:57:01;;;;;;;11.93;9.80;;;;;;;;;;5095389;28;20052;-68
2023/05/05 04:59:27;;;;;;;14.40;10.63;;;;;;;;;;5079150;28;20695;-68
2023/05/05 05:01:53;;;;;;;11.32;10.13;;;;;;;;;;5078788;28;20040;-68
2023/05/05 05:04:20;;;;;;;11.27;10.05;;;;;;;;;;5082296;28;20473;-68
2023/05/05 05:06:46;;;;;;;13.35;10.90;;;;;;;;;;5079259;28;20102;-68
2023/05/05 05:09:12;;;;;;;11.23;10.07;;;;;;;;;;5079487;28;20047;-69
2023/05/05 05:11:38;;;;;;;13.50;10.60;;;;;;;;;;5080859;28;20921;-69
2023/05/05 05:14:04;;;;;;;12.63;10.15;;;;;;;;;;5082317;28;20055;-68
2023/05/05 05:16:30;;;;;;;12.77;11.00;;;;;;;;;;5074002;28;20127;-69
2023/05/05 05:18:56;;;;;;;15.50;11.52;;;;;;;;;;5080844;28;20126;-68
2023/05/05 05:21:22;;;;;;;14.07;11.13;;;;;;;;;;5079574;28;20044;-68
2023/05/05 05:23:48;;;;;;;12.38;10.68;;;;;;;;;;5080088;28;20039;-68
2023/05/05 05:26:15;;;;;;;14.85;11.02;;;;;;;;;;5081052;28;20052;-68
2023/05/05 05:28:41;;;;;;;12.90;11.07;;;;;;;;;;5082761;28;20691;-69
2023/05/05 05:31:07;;;;;;;15.18;11.73;;;;;;;;;;5079657;28;20068;-68
2023/05/05 05:33:33;;;;;;;14.75;12.07;;;;;;;;;;5081082;28;20040;-68
2023/05/05 05:35:59;;;;;;;14.73;12.18;;;;;;;;;;5091754;28;20040;-69
2023/05/05 05:38:25;;;;;;;14.13;11.88;;;;;;;;;;5089853;28;20498;-69
2023/05/05 05:40:53;;;;;;;14.63;11.95;;;;;;;;;;5088914;28;20044;-68
2023/05/05 05:43:19;;;;;;;13.52;11.55;;;;;;;;;;5082343;28;20054;-69
2023/05/05 05:45:45;;;;;;;14.25;12.50;;;;;;;;;;5084560;28;20087;-69
2023/05/05 05:48:11;;;;;;;14.25;12.23;;;;;;;;;;5089662;28;20131;-69
2023/05/05 05:50:37;;;;;;;13.27;11.85;;;;;;;;;;5083422;28;20044;-69
2023/05/05 05:53:03;;;;;;;13.68;11.68;;;;;;;;;;5087706;28;20039;-69
2023/05/05 05:55:29;;;;;;;14.57;12.80;;;;;;;;;;5091184;28;20074;-69
2023/05/05 05:57:55;;;;;;;14.00;12.45;;;;;;;;;;5091032;28;20491;-69
2023/05/05 06:00:24;;;;;;;15.48;12.02;;;;;;;;;;5085193;28;20055;-69
2023/05/05 06:02:50;;;;;;;13.38;11.98;;;;;;;;;;5070233;28;20406;-68
2023/05/05 06:05:16;;;;;;;13.95;11.70;;;;;;;;;;5088643;28;20047;-68
2023/05/05 06:07:42;;;;;;;16.40;12.77;;;;;;;;;;5087780;28;20079;-69
2023/05/05 06:10:09;;;;;;;14.82;12.52;;;;;;;;;;5085895;28;20080;-69
2023/05/05 06:12:35;;;;;;;17.63;13.13;;;;;;;;;;5089440;28;20447;-69
2023/05/05 06:15:01;;;;;;;15.00;12.48;;;;;;;;;;5085061;28;20488;-68
2023/05/05 06:17:27;;;;;;;15.35;11.50;;;;;;;;;;5087259;28;20036;-69
2023/05/05 06:19:53;;;;;;;15.68;12.80;;;;;;;;;;5086919;28;20127;-68
2023/05/05 06:22:19;;;;;;;16.73;13.02;;;;;;;;;;5091720;28;20389;-68
2023/05/05 06:24:45;;;;;;;13.10;11.60;;;;;;;;;;5079234;28;20481;-69
2023/05/05 06:27:11;;;;;;;14.48;11.82;;;;;;;;;;5084773;28;20045;-69
2023/05/05 06:29:37;;;;;;;14.68;12.25;;;;;;;;;;5087103;28;20377;-69
2023/05/05 06:32:03;;;;;;;13.15;11.48;;;;;;;;;;5085195;28;20119;-68
2023/05/05 06:34:29;;;;;;;15.85;12.40;;;;;;;;;;5072529;28;20072;-68
2023/05/05 06:36:55;;;;;;;14.25;12.75;;;;;;;;;;5070972;28;20048;-68
2023/05/05 06:39:21;;;;;;;15.13;13.10;;;;;;;;;;5079857;28;20044;-68
2023/05/05 06:41:47;;;;;;;14.63;13.05;;;;;;;;;;5079189;28;20055;-68
2023/05/05 06:44:13;;;;;;;14.20;12.55;;;;;;;;;;5062775;28;20379;-69
2023/05/05 06:46:39;;;;;;;15.45;12.30;;;;;;;;;;5080374;28;20406;-68
2023/05/05 06:49:05;;;;;;;14.60;12.75;;;;;;;;;;5085008;28;20052;-68
2023/05/05 06:51:31;;;;;;;18.02;16.15;;;;;;;;;;5088076;28;20040;-68
2023/05/05 06:54:00;;;;;;;19.65;16.08;;;;;;;;;;5082403;28;20544;-69
2023/05/05 06:56:26;;;;;;;18.20;15.77;;;;;;;;;;5078595;28;20539;-69
2023/05/05 06:58:52;;;;;;;23.08;16.95;;;;;;;;;;5082165;28;20047;-68
2023/05/05 07:01:18;;;;;;;21.10;17.48;;;;;;;;;;5086971;28;20135;-69
2023/05/05 07:03:44;;;;;;;18.90;16.52;;;;;;;;;;5089037;28;20560;-70
2023/05/05 07:06:10;;;;;;;26.90;21.08;;;;;;;;;;5090505;28;20044;-70
2023/05/05 07:08:36;;;;;;;30.13;21.90;;;;;;;;;;5091184;28;20044;-70
2023/05/05 07:11:02;;;;;;;28.92;21.30;;;;;;;;;;5087793;28;20045;-70
2023/05/05 07:13:28;;;;;;;33.05;24.50;;;;;;;;;;5077926;28;20047;-69
2023/05/05 07:15:54;;;;;;;25.90;21.27;;;;;;;;;;5078380;28;20040;-70
2023/05/05 07:18:20;;;;;;;27.60;22.52;;;;;;;;;;5088056;28;20051;-69
2023/05/05 07:20:46;;;;;;;31.35;22.90;;;;;;;;;;5084111;28;20051;-70
2023/05/05 07:23:12;;;;;;;30.80;22.75;;;;;;;;;;5088217;28;20126;-70
2023/05/05 07:25:38;;;;;;;34.88;24.35;;;;;;;;;;5083996;28;20044;-69
2023/05/05 07:28:04;;;;;;;33.75;24.27;;;;;;;;;;5088025;28;20063;-67
2023/05/05 07:30:30;;;;;;;33.47;24.33;;;;;;;;;;5079541;28;20477;-69
2023/05/05 07:32:57;;;;;;;34.97;25.75;;;;;;;;;;5069832;28;20044;-69
2023/05/05 07:35:23;;;;;;;35.00;26.70;;;;;;;;;;5089628;28;20052;-72
2023/05/05 07:37:49;;;;;;;37.78;26.85;;;;;;;;;;5085514;28;20046;-71
2023/05/05 07:40:15;;;;;;;33.35;27.67;;;;;;;;;;5091061;28;20047;-70
2023/05/05 07:42:41;;;;;;;34.10;26.08;;;;;;;;;;5073587;28;20045;-71
2023/05/05 07:45:07;;;;;;;34.33;26.92;;;;;;;;;;5087293;28;20036;-69
2023/05/05 07:47:33;;;;;;;38.38;27.67;;;;;;;;;;5089042;28;20044;-69
2023/05/05 07:50:00;;;;;;;38.08;27.67;;;;;;;;;;5086575;28;20385;-69
2023/05/05 07:52:26;;;;;;;35.53;26.92;;;;;;;;;;5092080;28;20377;-68
2023/05/05 07:54:54;;;;;;;37.15;27.30;;;;;;;;;;5090587;28;20054;-69
2023/05/05 07:57:21;;;;;;;35.95;27.63;;;;;;;;;;5071557;28;20059;-68
2023/05/05 07:59:47;;;;;;;36.67;25.88;;;;;;;;;;5078822;28;20048;-68
2023/05/05 08:02:13;;;;;;;36.88;25.88;;;;;;;;;;5090773;28;20052;-69
2023/05/05 08:04:39;;;;;;;36.33;27.27;;;;;;;;;;5083315;28;20121;-69
2023/05/05 08:07:06;;;;;;;33.88;26.10;;;;;;;;;;5088753;28;20052;-69
2023/05/05 08:09:33;;;;;;;31.25;24.00;;;;;;;;;;5089635;28;20052;-69
2023/05/05 08:11:58;;;;;;;32.05;25.25;;;;;;;;;;5090176;28;20142;-70
2023/05/05 08:14:24;;;;;;;33.58;26.00;;;;;;;;;;5078297;28;20062;-70
2023/05/05 08:16:50;;;;;;;32.85;24.85;;;;;;;;;;5086378;28;20052;-69
2023/05/05 08:19:18;;;;;;;37.63;25.17;;;;;;;;;;5081131;28;20040;-69
2023/05/05 08:21:44;;;;;;;33.65;23.73;;;;;;;;;;5091262;28;20048;-70
2023/05/05 08:24:10;;;;;;;31.00;23.00;;;;;;;;;;5077292;28;20491;-71
2023/05/05 08:26:36;;;;;;;29.60;22.17;;;;;;;;;;5084767;28;20051;-72
2023/05/05 08:29:02;;;;;;;36.05;22.60;;;;;;;;;;5087922;28;20036;-72
2023/05/05 08:31:32;;;;;;;28.08;21.10;;;;;;;;;;5083326;28;20055;-70
2023/05/05 08:33:58;;;;;;;30.65;22.58;;;;;;;;;;5084008;28;20372;-70
2023/05/05 08:36:24;;;;;;;31.42;22.77;;;;;;;;;;5088413;28;20047;-69
2023/05/05 08:38:50;;;;;;;30.75;22.45;;;;;;;;;;5084289;28;20052;-69
2023/05/05 08:41:19;;;;;;;35.67;22.60;;;;;;;;;;5084039;28;20048;-69
2023/05/05 08:43:46;;;;;;;33.42;24.05;;;;;;;;;;5068911;28;20391;-69
2023/05/05 08:46:12;;;;;;;32.33;24.33;;;;;;;;;;5082855;28;20491;-70
2023/05/05 08:48:40;;;;;;;32.97;24.42;;;;;;;;;;5079791;28;20042;-71
2023/05/05 08:51:06;;;;;;;33.92;24.55;;;;;;;;;;5085646;28;20044;-70
2023/05/05 08:53:32;;;;;;;31.83;23.80;;;;;;;;;;5082394;28;20064;-70
2023/05/05 08:56:00;;;;;;;32.63;23.48;;;;;;;;;;5077994;28;20575;-69
2023/05/05 08:58:26;;;;;;;32.10;23.75;;;;;;;;;;5084041;28;20051;-69
2023/05/05 09:00:52;;;;;;;32.85;23.15;;;;;;;;;;5105599;28;20554;-69
2023/05/05 09:03:18;;;;;;;32.97;24.60;;;;;;;;;;5090066;28;20082;-69
2023/05/05 09:05:44;;;;;;;30.08;23.83;;;;;;;;;;5079523;28;20368;-70
2023/05/05 09:08:11;;;;;;;34.22;25.33;;;;;;;;;;5089398;28;20407;-70
2023/05/05 09:10:39;;;;;;;30.48;23.17;;;;;;;;;;5086248;28;20048;-70
2023/05/05 09:13:06;;;;;;;31.88;21.50;;;;;;;;;;5082816;28;20039;-70
2023/05/05 09:15:32;;;;;;;32.30;22.30;;;;;;;;;;5063095;28;20091;-70
2023/05/05 09:17:59;;;;;;;35.42;24.20;;;;;;;;;;5088825;28;20047;-70
2023/05/05 09:20:32;;;;;;;28.05;21.15;;;;;;;;;;5080185;28;20517;-70
2023/05/05 09:23:06;;;;;;;28.83;21.65;;;;;;;;;;5081543;28;20187;-70
2023/05/05 09:25:32;;;;;;;28.55;21.52;;;;;;;;;;5083820;28;20449;-70
2023/05/05 09:27:58;;;;;;;32.50;21.95;;;;;;;;;;5087764;28;20043;-69
2023/05/05 09:30:25;;;;;;;26.88;21.45;;;;;;;;;;5082852;28;20186;-70
2023/05/05 09:32:53;;;;;;;27.00;19.55;;;;;;;;;;5099281;28;20054;-69
2023/05/05 09:35:19;;;;;;;22.65;18.77;;;;;;;;;;5091459;28;20044;-69
2023/05/05 09:37:45;;;;;;;24.90;18.45;;;;;;;;;;5087950;28;20054;-70
2023/05/05 09:40:15;;;;;;;22.48;17.83;;;;;;;;;;5088125;28;20040;-70
2023/05/05 09:42:41;;;;;;;27.10;18.48;;;;;;;;;;5100989;28;20131;-70
2023/05/05 09:45:27;;;;;;;23.67;17.50;;;;;;;;;;5076738;28;20403;-70
2023/05/05 09:47:53;;;;;;;24.23;17.40;;;;;;;;;;5088541;28;20150;-69
2023/05/05 09:50:20;;;;;;;20.35;15.50;;;;;;;;;;5095150;28;20040;-70
2023/05/05 09:52:56;;;;;;;20.92;16.08;;;;;;;;;;5092673;28;20048;-70
2023/05/05 09:55:22;;;;;;;18.70;14.57;;;;;;;;;;5083900;28;20062;-70
2023/05/05 09:57:48;;;;;;;21.50;14.18;;;;;;;;;;5081250;28;20044;-69
2023/05/05 10:00:15;;;;;;;20.88;15.27;;;;;;;;;;5083580;28;20044;-70
2023/05/05 10:02:41;;;;;;;21.10;14.75;;;;;;;;;;5086291;28;20058;-71
2023/05/05 10:05:08;;;;;;;19.77;14.82;;;;;;;;;;5082100;28;20372;-70
2023/05/05 10:07:35;;;;;;;16.50;13.80;;;;;;;;;;5079055;28;20040;-70
2023/05/05 10:10:05;;;;;;;17.83;13.95;;;;;;;;;;5087003;28;20081;-71
2023/05/05 10:12:33;;;;;;;17.85;14.23;;;;;;;;;;5077621;28;20040;-71
2023/05/05 10:15:01;;;;;;;17.38;13.07;;;;;;;;;;5079416;28;20125;-72
2023/05/05 10:17:30;;;;;;;18.30;13.43;;;;;;;;;;5085437;28;20759;-73
2023/05/05 10:19:58;;;;;;;18.60;14.50;;;;;;;;;;5085945;28;20040;-73
2023/05/05 10:22:24;;;;;;;18.63;14.25;;;;;;;;;;5086814;28;20044;-73
2023/05/05 10:24:55;;;;;;;15.30;11.80;;;;;;;;;;5084348;28;20036;-72
2023/05/05 10:27:22;;;;;;;19.35;13.65;;;;;;;;;;5073363;28;20067;-69
2023/05/05 10:30:05;;;;;;;16.13;13.32;;;;;;;;;;5092332;28;20048;-69
2023/05/05 10:32:31;;;;;;;14.25;11.75;;;;;;;;;;5086598;28;20043;-75
2023/05/05 10:34:59;;;;;;;13.90;11.02;;;;;;;;;;5087431;28;20112;-76
2023/05/05 10:37:26;;;;;;;15.18;10.57;;;;;;;;;;5092930;28;20044;-75
2023/05/05 10:39:55;;;;;;;12.05;9.27;;;;;;;;;;5084696;28;20506;-76
2023/05/05 10:42:22;;;;;;;12.82;9.70;;;;;;;;;;5091287;28;20063;-75
2023/05/05 10:44:48;;;;;;;10.90;8.57;;;;;;;;;;5088870;28;20092;-74
2023/05/05 10:47:15;;;;;;;13.20;8.38;;;;;;;;;;5087284;28;20044;-74
2023/05/05 10:49:47;;;;;;;12.32;8.68;;;;;;;;;;5085130;28;20039;-71
2023/05/05 10:52:20;;;;;;;10.75;8.07;;;;;;;;;;5085094;28;20044;-71
2023/05/05 10:54:46;;;;;;;12.57;8.30;;;;;;;;;;5087839;28;20055;-71
2023/05/05 10:57:14;;;;;;;10.75;8.05;;;;;;;;;;5082862;28;20048;-71
2023/05/05 10:59:41;;;;;;;13.75;7.63;;;;;;;;;;5090912;28;20064;-71
2023/05/05 11:02:22;;;;;;;8.68;6.80;;;;;;;;;;5093030;28;20495;-71
2023/05/05 11:05:08;;;;;;;9.35;7.00;;;;;;;;;;5089693;28;20040;-71
2023/05/05 11:07:34;;;;;;;8.68;5.70;;;;;;;;;;5089783;28;20056;-71
2023/05/05 11:10:02;;;;;;;7.88;4.95;;;;;;;;;;5075252;28;20047;-71
2023/05/05 11:12:31;;;;;;;7.68;4.70;;;;;;;;;;5087882;28;20090;-71
2023/05/05 11:15:16;;;;;;;4.43;3.40;;;;;;;;;;5089486;28;20040;-71
2023/05/05 11:17:44;;;;;;;6.57;3.65;;;;;;;;;;5087884;28;20134;-71
2023/05/05 11:20:10;;;;;;;5.32;3.42;;;;;;;;;;5090965;28;20052;-71
2023/05/05 11:22:55;;;;;;;6.47;3.55;;;;;;;;;;5082265;28;20047;-71
2023/05/05 11:25:43;;;;;;;4.38;3.63;;;;;;;;;;5086397;28;20442;-71
2023/05/05 11:28:13;;;;;;;6.63;3.70;;;;;;;;;;5078294;28;20155;-71
2023/05/05 11:30:57;;;;;;;6.65;3.67;;;;;;;;;;5092110;28;20104;-71
2023/05/05 11:33:24;;;;;;;4.40;3.05;;;;;;;;;;5090351;28;20403;-71
2023/05/05 11:35:57;;;;;;;3.33;2.75;;;;;;;;;;5087257;28;20040;-71
2023/05/05 11:38:30;;;;;;;5.13;3.08;;;;;;;;;;5090907;28;20048;-71
2023/05/05 11:40:56;;;;;;;;;;;;;;;;;;5082970;28;20044;-71
2023/05/05 11:43:22;;;;;;;5.90;3.22;;;;;;;;;;5102316;28;19946;-71
2023/05/05 11:45:48;;;;;;;4.63;3.30;;;;;;;;;;5095032;28;20094;-71
2023/05/05 11:48:27;;;;;;;5.13;3.17;;;;;;;;;;5075208;28;20051;-72
2023/05/05 11:50:53;;;;;;;6.40;3.30;;;;;;;;;;5079933;28;20124;-71
2023/05/05 11:53:19;;;;;;;5.28;3.30;;;;;;;;;;5091256;28;20054;-71
2023/05/05 11:55:45;;;;;;;5.00;3.83;;;;;;;;;;5088345;28;20096;-71
2023/05/05 11:58:20;;;;;;;5.35;3.53;;;;;;;;;;5086261;28;20105;-71
2023/05/05 12:00:46;;;;;;;5.15;3.40;;;;;;;;;;5091264;28;20079;-71
2023/05/05 12:03:13;;;;;;;4.78;3.90;;;;;;;;;;5088844;28;20059;-71
2023/05/05 12:05:40;;;;;;;6.97;4.35;;;;;;;;;;5091872;28;20097;-71
2023/05/05 12:08:06;;;;;;;6.68;4.20;;;;;;;;;;5090021;28;20040;-71
2023/05/05 12:10:32;;;;;;;9.05;4.80;;;;;;;;;;5088392;28;20836;-71
2023/05/05 12:12:58;;;;;;;6.30;4.28;;;;;;;;;;5083201;28;20457;-71
2023/05/05 12:15:28;;;;;;;6.72;4.43;;;;;;;;;;5082448;28;20086;-71
2023/05/05 12:17:54;;;;;;;5.32;4.40;;;;;;;;;;5085333;28;20040;-71
2023/05/05 12:20:29;;;;;;;6.72;4.90;;;;;;;;;;5086400;28;20067;-71
2023/05/05 12:22:59;;;;;;;8.27;4.82;;;;;;;;;;5089105;28;20043;-71
2023/05/05 12:25:25;;;;;;;7.45;4.63;;;;;;;;;;5092730;28;20048;-71
2023/05/05 12:27:52;;;;;;;6.78;4.53;;;;;;;;;;5096572;28;20036;-71
2023/05/05 12:30:18;;;;;;;6.53;4.45;;;;;;;;;;5087344;28;20040;-71
2023/05/05 12:32:45;;;;;;;7.53;4.50;;;;;;;;;;5081353;28;20387;-71
2023/05/05 12:35:11;;;;;;;7.70;5.43;;;;;;;;;;5091167;28;20051;-71
2023/05/05 12:37:38;;;;;;;7.63;4.70;;;;;;;;;;5089227;28;20051;-73
2023/05/05 12:40:05;;;;;;;6.93;4.50;;;;;;;;;;5070936;28;20080;-73
2023/05/05 12:42:31;;;;;;;8.18;4.55;;;;;;;;;;5088717;28;20043;-73
2023/05/05 12:44:57;;;;;;;8.43;5.30;;;;;;;;;;5091476;28;20047;-73
2023/05/05 12:47:30;;;;;;;5.38;4.13;;;;;;;;;;5084795;28;20474;-73
2023/05/05 12:49:58;;;;;;;4.50;3.58;;;;;;;;;;5075842;28;20407;-72
2023/05/05 12:52:24;;;;;;;6.88;4.15;;;;;;;;;;5085123;28;20066;-73
2023/05/05 12:54:51;;;;;;;7.40;3.83;;;;;;;;;;5075629;28;20071;-73
2023/05/05 12:57:18;;;;;;;3.50;3.20;;;;;;;;;;5089837;28;20055;-73
2023/05/05 12:59:44;;;;;;;3.83;3.25;;;;;;;;;;5089187;28;20494;-73
2023/05/05 13:02:10;;;;;;;4.15;3.50;;;;;;;;;;5091680;28;20052;-73
2023/05/05 13:04:47;;;;;;;5.47;3.53;;;;;;;;;;5082901;28;20344;-73
2023/05/05 13:07:13;;;;;;;5.05;3.53;;;;;;;;;;5087270;28;20036;-73
2023/05/05 13:09:40;;;;;;;8.88;3.58;;;;;;;;;;5083513;28;20047;-73
2023/05/05 13:12:07;;;;;;;7.50;4.13;;;;;;;;;;5083772;28;20044;-73
2023/05/05 13:14:36;;;;;;;6.15;3.85;;;;;;;;;;5084681;28;20091;-70
2023/05/05 13:17:02;;;;;;;6.25;4.10;;;;;;;;;;5083758;28;20126;-71
2023/05/05 13:19:28;;;;;;;9.02;4.50;;;;;;;;;;5070713;28;20074;-71
2023/05/05 13:21:55;;;;;;;6.43;4.90;;;;;;;;;;5090890;28;20055;-71
2023/05/05 13:24:22;;;;;;;7.18;5.22;;;;;;;;;;5085201;28;20504;-71
2023/05/05 13:26:48;;;;;;;8.00;5.45;;;;;;;;;;5084528;28;20048;-71
2023/05/05 13:29:15;;;;;;;5.30;4.78;;;;;;;;;;5085081;28;20048;-71
2023/05/05 13:31:41;;;;;;;8.20;5.43;;;;;;;;;;5083150;28;20501;-71
2023/05/05 13:34:07;;;;;;;10.32;5.78;;;;;;;;;;5089382;28;20042;-71
2023/05/05 13:36:33;;;;;;;8.48;5.35;;;;;;;;;;5079584;28;20036;-72
2023/05/05 13:38:59;;;;;;;9.50;5.88;;;;;;;;;;5088277;28;20059;-71
2023/05/05 13:41:26;;;;;;;8.55;5.53;;;;;;;;;;5085367;28;20508;-73
2023/05/05 13:43:52;;;;;;;10.23;5.90;;;;;;;;;;5081090;28;20089;-73
2023/05/05 13:46:18;;;;;;;9.93;6.50;;;;;;;;;;5088638;28;20385;-71
2023/05/05 13:48:44;;;;;;;8.90;5.80;;;;;;;;;;5087563;28;20489;-72
2023/05/05 13:51:10;;;;;;;6.63;5.70;;;;;;;;;;5089522;28;20043;-71
2023/05/05 13:53:38;;;;;;;8.05;5.68;;;;;;;;;;5088581;28;20048;-71
2023/05/05 13:56:05;;;;;;;7.82;5.63;;;;;;;;;;5088811;28;20241;-71
2023/05/05 13:58:31;;;;;;;8.45;5.85;;;;;;;;;;5077713;28;20111;-71
2023/05/05 14:00:57;;;;;;;7.68;5.90;;;;;;;;;;5089373;28;20534;-71
2023/05/05 14:03:23;;;;;;;9.32;6.60;;;;;;;;;;5081810;28;20072;-71
2023/05/05 14:05:52;;;;;;;9.18;6.05;;;;;;;;;;5087394;28;20043;-71
2023/05/05 14:08:18;;;;;;;9.80;6.18;;;;;;;;;;5089278;28;20395;-71
2023/05/05 14:10:44;;;;;;;10.55;6.88;;;;;;;;;;5089043;28;20514;-71
2023/05/05 14:13:11;;;;;;;8.05;6.55;;;;;;;;;;5091224;28;20441;-71
2023/05/05 14:15:37;;;;;;;10.82;6.88;;;;;;;;;;5082788;28;20409;-71
2023/05/05 14:18:03;;;;;;;8.00;6.75;;;;;;;;;;5082844;28;20131;-71
2023/05/05 14:20:29;;;;;;;10.45;6.88;;;;;;;;;;5087757;28;20058;-71
2023/05/05 14:22:55;;;;;;;9.93;6.63;;;;;;;;;;5088981;28;20051;-71
2023/05/05 14:25:21;;;;;;;7.82;5.88;;;;;;;;;;5097700;28;20040;-71
2023/05/05 14:27:47;;;;;;;10.02;6.15;;;;;;;;;;5082324;28;20141;-71
2023/05/05 14:30:14;;;;;;;11.30;7.70;;;;;;;;;;5085182;28;20040;-71